Terminal Aerodrome Forecast
Issued by NWS

Home | Current Version | Previous Version | Text Only | Print | Product List | Glossary On
Versions: 1 2 3 4 5 6 7 8 9 10 11 12 13 14
000
FTUS45 KTFX 311120
TAFCTB
TAF
KCTB 311120Z 3112/0112 VRB06KT P6SM SCT150
     FM312000 25015G25KT P6SM SCT100 BKN150
     FM010200 21008KT P6SM BKN150=

USA.gov is the U.S. government's official web portal to all federal, state and local government web resources and services.